Time;durP1;ratioP1;P1;durP2;ratioP2;P2;SDS_P1;SDS_P2;PMS_P1;PMS_P2;Temp;Humidity;BMP_temperature;BMP_pressure;BME280_temperature;BME280_humidity;BME280_pressure;Samples;Min_cycle;Max_cycle;Signal;HPM_P1;HPM_P2
2021/05/15 00:01:09;;;;;;;2.60;0.88;;;14.00;53.90;;;;;;5013973;28;20034;-69
2021/05/15 00:03:36;;;;;;;2.65;0.70;;;14.00;54.30;;;;;;5012742;28;20026;-69
2021/05/15 00:06:03;;;;;;;1.63;0.88;;;14.00;54.20;;;;;;5012684;28;20022;-69
2021/05/15 00:08:29;;;;;;;1.15;0.70;;;14.00;54.00;;;;;;5022042;28;20017;-69
2021/05/15 00:10:54;;;;;;;1.08;0.85;;;14.00;53.90;;;;;;5032494;28;20029;-69
2021/05/15 00:13:20;;;;;;;0.85;0.77;;;14.00;53.80;;;;;;5020724;28;20038;-69
2021/05/15 00:15:47;;;;;;;1.30;0.90;;;14.00;53.70;;;;;;5012719;28;20037;-69
2021/05/15 00:18:13;;;;;;;1.73;1.00;;;14.00;53.90;;;;;;5012323;28;20504;-69
2021/05/15 00:20:39;;;;;;;1.08;0.82;;;14.00;54.20;;;;;;5013198;28;20025;-69
2021/05/15 00:23:05;;;;;;;1.77;1.00;;;14.00;54.10;;;;;;5012424;28;20053;-69
2021/05/15 00:25:31;;;;;;;1.05;0.68;;;14.00;54.00;;;;;;5011200;28;20061;-69
2021/05/15 00:27:56;;;;;;;1.88;1.00;;;13.90;54.00;;;;;;5012456;28;20047;-69
2021/05/15 00:30:22;;;;;;;2.60;1.08;;;14.00;54.60;;;;;;5012544;28;20037;-69
2021/05/15 00:32:48;;;;;;;2.05;1.08;;;13.90;54.70;;;;;;5012571;28;20040;-70
2021/05/15 00:35:14;;;;;;;1.30;1.00;;;14.00;54.60;;;;;;5012307;28;20029;-69
2021/05/15 00:37:39;;;;;;;1.70;1.10;;;14.00;54.50;;;;;;5012558;28;20076;-69
2021/05/15 00:40:09;;;;;;;2.50;1.20;;;13.90;54.80;;;;;;5012497;28;20507;-69
2021/05/15 00:42:35;;;;;;;1.60;0.90;;;14.00;55.20;;;;;;5012394;28;20037;-69
2021/05/15 00:45:02;;;;;;;3.70;1.00;;;13.90;55.00;;;;;;5027704;28;20033;-69
2021/05/15 00:47:28;;;;;;;4.55;1.10;;;14.00;55.00;;;;;;5030370;28;20022;-69
2021/05/15 00:49:54;;;;;;;5.15;2.13;;;14.00;55.00;;;;;;5031903;28;20521;-69
2021/05/15 00:52:21;;;;;;;4.32;1.83;;;14.00;55.60;;;;;;5012167;28;20511;-69
2021/05/15 00:54:50;;;;;;;4.25;1.40;;;14.00;55.80;;;;;;5012279;28;20041;-70
2021/05/15 00:57:16;;;;;;;3.47;0.93;;;14.00;56.00;;;;;;5012092;28;20040;-69
2021/05/15 00:59:42;;;;;;;2.28;1.15;;;14.00;55.70;;;;;;5012257;28;20494;-69
2021/05/15 01:02:10;;;;;;;2.15;1.05;;;14.00;55.70;;;;;;5012266;28;20464;-69
2021/05/15 01:04:36;;;;;;;1.02;0.50;;;14.10;55.40;;;;;;5011134;28;20033;-69
2021/05/15 01:07:05;;;;;;;2.67;0.90;;;14.10;55.10;;;;;;5012131;28;20099;-69
2021/05/15 01:09:31;;;;;;;2.80;0.90;;;14.10;55.10;;;;;;5022182;28;20033;-69
2021/05/15 01:11:56;;;;;;;3.10;1.40;;;14.10;54.90;;;;;;5031961;28;20026;-69
2021/05/15 01:14:22;;;;;;;1.88;0.85;;;14.00;55.10;;;;;;5031985;28;20030;-69
2021/05/15 01:16:49;;;;;;;1.02;0.73;;;14.00;55.10;;;;;;5035423;28;20158;-70
2021/05/15 01:19:15;;;;;;;2.75;0.63;;;14.00;54.90;;;;;;5035470;28;20387;-69
2021/05/15 01:21:42;;;;;;;1.38;0.93;;;13.90;54.80;;;;;;5029762;28;20034;-69
2021/05/15 01:24:08;;;;;;;1.98;1.10;;;13.90;55.50;;;;;;5035178;28;20472;-69
2021/05/15 01:26:34;;;;;;;2.83;0.95;;;13.90;55.80;;;;;;5029677;28;20118;-69
2021/05/15 01:29:04;;;;;;;5.47;1.25;;;13.80;55.90;;;;;;5015361;28;20026;-69
2021/05/15 01:31:30;;;;;;;8.00;1.30;;;13.80;56.30;;;;;;5015412;28;20032;-69
2021/05/15 01:33:57;;;;;;;12.73;1.27;;;13.80;56.50;;;;;;5014472;28;20049;-69
2021/05/15 01:36:23;;;;;;;2.40;0.98;;;13.80;56.30;;;;;;5015237;28;20029;-69
2021/05/15 01:38:49;;;;;;;1.23;0.80;;;13.70;56.10;;;;;;5034311;28;20092;-69
2021/05/15 01:41:16;;;;;;;3.50;1.00;;;13.70;55.90;;;;;;5029104;28;20033;-69
2021/05/15 01:43:43;;;;;;;6.25;1.20;;;13.70;56.00;;;;;;5014899;28;20033;-69
2021/05/15 01:46:10;;;;;;;3.08;1.30;;;13.70;56.10;;;;;;5015295;28;20030;-69
2021/05/15 01:48:36;;;;;;;1.98;0.98;;;13.70;56.40;;;;;;5014534;28;20117;-69
2021/05/15 01:51:12;;;;;;;4.40;0.88;;;13.80;56.40;;;;;;5022965;28;20014;-69
2021/05/15 01:53:41;;;;;;;1.75;0.70;;;13.80;56.50;;;;;;5030365;28;20057;-69
2021/05/15 01:56:09;;;;;;;2.33;1.10;;;13.80;56.30;;;;;;5014938;28;20044;-69
2021/05/15 01:58:35;;;;;;;1.17;0.80;;;13.80;56.30;;;;;;5020088;28;20026;-69
2021/05/15 02:01:02;;;;;;;1.02;0.77;;;13.90;56.20;;;;;;5034842;28;20490;-70
2021/05/15 02:03:28;;;;;;;9.73;1.10;;;13.90;56.10;;;;;;5028426;28;20038;-69
2021/05/15 02:05:54;;;;;;;4.55;0.95;;;13.90;56.10;;;;;;5014958;28;20073;-69
2021/05/15 02:08:21;;;;;;;1.75;1.20;;;13.90;56.10;;;;;;5015130;28;20144;-70
2021/05/15 02:10:49;;;;;;;2.20;1.27;;;13.90;56.00;;;;;;5015245;28;20407;-70
2021/05/15 02:13:17;;;;;;;3.72;1.42;;;13.90;56.10;;;;;;5015325;28;20507;-69
2021/05/15 02:15:43;;;;;;;3.75;1.45;;;13.90;56.10;;;;;;5015351;28;20038;-70
2021/05/15 02:18:09;;;;;;;2.38;1.25;;;13.90;56.20;;;;;;5015572;28;20032;-69
2021/05/15 02:20:35;;;;;;;1.90;1.30;;;13.90;56.10;;;;;;5015541;28;20025;-69
2021/05/15 02:23:01;;;;;;;2.15;1.25;;;13.90;56.00;;;;;;5013963;28;20497;-69
2021/05/15 02:25:28;;;;;;;3.85;0.88;;;13.90;55.90;;;;;;5018301;28;20037;-69
2021/05/15 02:27:54;;;;;;;2.58;1.05;;;13.90;55.90;;;;;;5029817;28;20026;-68
2021/05/15 02:30:22;;;;;;;5.43;1.20;;;13.90;55.80;;;;;;5015226;28;20514;-69
2021/05/15 02:32:48;;;;;;;4.88;1.50;;;13.90;56.00;;;;;;5015289;28;20034;-69
2021/05/15 02:35:15;;;;;;;6.47;1.52;;;13.90;56.10;;;;;;5014163;28;20210;-69
2021/05/15 02:37:42;;;;;;;2.20;1.20;;;13.80;56.70;;;;;;5014888;28;20029;-69
2021/05/15 02:40:09;;;;;;;4.72;1.42;;;13.80;56.90;;;;;;5013802;28;20109;-69
2021/05/15 02:42:36;;;;;;;5.40;1.30;;;13.80;56.90;;;;;;5013571;28;20030;-69
2021/05/15 02:45:07;;;;;;;2.60;1.60;;;13.70;57.20;;;;;;5013709;28;20472;-69
2021/05/15 02:47:33;;;;;;;2.90;1.38;;;13.70;58.00;;;;;;5014652;28;20034;-69
2021/05/15 02:49:58;;;;;;;2.58;1.00;;;13.70;57.90;;;;;;5014789;28;20539;-69
2021/05/15 02:52:24;;;;;;;4.18;1.40;;;13.70;57.90;;;;;;5014896;28;20053;-69
2021/05/15 02:54:50;;;;;;;4.15;1.00;;;13.60;58.30;;;;;;5014852;28;20049;-69
2021/05/15 02:57:16;;;;;;;3.10;1.17;;;13.60;58.80;;;;;;5014784;28;20395;-68
2021/05/15 02:59:42;;;;;;;4.85;1.60;;;13.50;59.00;;;;;;5028054;28;20035;-68
2021/05/15 03:02:08;;;;;;;7.07;1.40;;;13.40;59.20;;;;;;5047629;28;20063;-69
2021/05/15 03:04:33;;;;;;;2.30;1.08;;;13.40;59.40;;;;;;5026266;28;20038;-69
2021/05/15 03:07:00;;;;;;;4.57;1.25;;;13.40;59.30;;;;;;5014673;28;20018;-69
2021/05/15 03:09:26;;;;;;;1.10;1.00;;;13.30;59.30;;;;;;5014532;28;20085;-69
2021/05/15 03:11:51;;;;;;;2.80;1.10;;;13.30;59.10;;;;;;5014581;28;20026;-69
2021/05/15 03:14:18;;;;;;;1.88;1.20;;;13.30;58.80;;;;;;5014445;28;20109;-69
2021/05/15 03:16:43;;;;;;;2.30;1.20;;;13.30;58.60;;;;;;5014419;28;20022;-69
2021/05/15 03:19:09;;;;;;;4.47;1.02;;;13.30;58.80;;;;;;5014296;28;20479;-69
2021/05/15 03:21:35;;;;;;;4.13;1.40;;;13.30;58.90;;;;;;5014368;28;20030;-69
2021/05/15 03:24:01;;;;;;;4.70;1.35;;;13.20;59.10;;;;;;5014178;28;20033;-69
2021/05/15 03:26:27;;;;;;;4.50;1.63;;;13.20;59.10;;;;;;5014141;28;20519;-69
2021/05/15 03:28:52;;;;;;;2.95;1.40;;;13.20;59.00;;;;;;5014148;28;20018;-69
2021/05/15 03:31:18;;;;;;;4.07;1.42;;;13.20;59.10;;;;;;5014139;28;20468;-69
2021/05/15 03:33:44;;;;;;;1.20;0.85;;;13.20;59.10;;;;;;5014448;28;20034;-69
2021/05/15 03:36:10;;;;;;;2.17;1.00;;;13.20;59.10;;;;;;5036017;28;20498;-69
2021/05/15 03:38:36;;;;;;;6.45;1.20;;;13.20;59.00;;;;;;5014045;28;20029;-69
2021/05/15 03:41:02;;;;;;;2.50;1.20;;;13.20;59.10;;;;;;5014050;28;20500;-69
2021/05/15 03:43:28;;;;;;;1.90;1.20;;;13.20;59.00;;;;;;5013900;28;20029;-69
2021/05/15 03:45:55;;;;;;;4.57;1.20;;;13.20;59.10;;;;;;5014114;28;20029;-69
2021/05/15 03:48:21;;;;;;;3.55;1.20;;;13.20;59.00;;;;;;5013671;28;20378;-69
2021/05/15 03:50:51;;;;;;;3.17;1.17;;;13.20;58.80;;;;;;5012456;28;20132;-69
2021/05/15 03:53:18;;;;;;;3.92;1.13;;;13.20;58.90;;;;;;5013861;28;20028;-69
2021/05/15 03:55:43;;;;;;;3.08;0.95;;;13.20;58.60;;;;;;5013800;28;20055;-69
2021/05/15 03:58:10;;;;;;;0.63;0.60;;;13.20;58.60;;;;;;5012364;28;20080;-69
2021/05/15 04:00:35;;;;;;;1.30;0.90;;;13.20;58.60;;;;;;5050458;28;20107;-68
2021/05/15 04:03:01;;;;;;;3.00;1.13;;;13.20;58.70;;;;;;5052565;28;20100;-69
2021/05/15 04:05:27;;;;;;;2.38;0.90;;;13.20;58.60;;;;;;5013550;28;20288;-70
2021/05/15 04:07:53;;;;;;;1.55;1.15;;;13.30;58.60;;;;;;5013648;28;20048;-69
2021/05/15 04:10:19;;;;;;;5.75;1.02;;;13.30;58.80;;;;;;5013474;28;20087;-69
2021/05/15 04:12:52;;;;;;;4.28;0.75;;;13.40;58.80;;;;;;5013512;28;20030;-69
2021/05/15 04:15:40;;;;;;;3.78;0.93;;;13.40;58.70;;;;;;5013417;28;20045;-69
2021/05/15 04:18:13;;;;;;;5.38;1.30;;;13.50;58.60;;;;;;5013512;28;20105;-69
2021/05/15 04:20:44;;;;;;;1.95;1.23;;;13.50;58.60;;;;;;5013483;28;20109;-69
2021/05/15 04:23:12;;;;;;;2.53;1.00;;;13.60;58.60;;;;;;5013264;28;20034;-69
2021/05/15 04:25:38;;;;;;;2.28;1.23;;;13.60;58.80;;;;;;5013296;28;20425;-69
2021/05/15 04:28:06;;;;;;;2.60;1.00;;;13.70;58.80;;;;;;5013238;28;20018;-70
2021/05/15 04:30:32;;;;;;;4.07;1.10;;;13.70;58.80;;;;;;5013441;28;20112;-68
2021/05/15 04:32:58;;;;;;;2.97;1.30;;;13.70;58.80;;;;;;5011924;28;20436;-69
2021/05/15 04:35:24;;;;;;;5.40;1.35;;;13.80;58.90;;;;;;5013352;28;20033;-69
2021/05/15 04:37:50;;;;;;;2.47;1.42;;;13.80;58.90;;;;;;5013184;28;20030;-69
2021/05/15 04:40:16;;;;;;;2.80;1.23;;;13.90;58.80;;;;;;5011881;28;20033;-69
2021/05/15 04:42:42;;;;;;;2.30;1.45;;;13.90;58.70;;;;;;5013108;28;20476;-69
2021/05/15 04:45:09;;;;;;;13.18;1.30;;;14.00;58.50;;;;;;5011887;28;20037;-68
2021/05/15 04:47:36;;;;;;;2.45;1.00;;;14.00;58.50;;;;;;5013171;28;20484;-69
2021/05/15 04:50:03;;;;;;;5.20;1.30;;;14.10;58.40;;;;;;5015844;28;20050;-69
2021/05/15 04:52:29;;;;;;;1.67;1.05;;;14.20;58.40;;;;;;5032419;28;20017;-69
2021/05/15 04:54:55;;;;;;;3.17;1.20;;;14.20;58.30;;;;;;5056822;28;20017;-69
2021/05/15 04:57:21;;;;;;;1.83;0.80;;;14.30;58.20;;;;;;5056734;28;20383;-68
2021/05/15 04:59:46;;;;;;;2.33;0.95;;;14.30;58.20;;;;;;5056688;28;20105;-69
2021/05/15 05:02:12;;;;;;;2.40;1.33;;;14.40;58.10;;;;;;5056581;28;20300;-69
2021/05/15 05:04:38;;;;;;;1.67;0.80;;;14.50;58.00;;;;;;5025343;28;20061;-69
2021/05/15 05:07:04;;;;;;;1.67;1.17;;;14.60;57.90;;;;;;5016699;28;20101;-69
2021/05/15 05:09:30;;;;;;;2.85;1.27;;;14.70;57.90;;;;;;5016764;28;20455;-69
2021/05/15 05:11:56;;;;;;;1.58;0.90;;;14.80;57.80;;;;;;5016715;28;20054;-69
2021/05/15 05:14:22;;;;;;;5.70;1.30;;;14.90;57.70;;;;;;5016682;28;20529;-69
2021/05/15 05:16:48;;;;;;;2.03;1.20;;;15.00;57.60;;;;;;5016659;28;20030;-69
2021/05/15 05:19:15;;;;;;;4.10;1.52;;;15.10;57.40;;;;;;5016615;28;20495;-68
2021/05/15 05:21:41;;;;;;;3.47;1.52;;;15.20;57.20;;;;;;5031702;28;20036;-69
2021/05/15 05:24:07;;;;;;;3.50;1.30;;;15.40;57.10;;;;;;5016316;28;20164;-69
2021/05/15 05:26:35;;;;;;;2.55;1.20;;;15.40;57.00;;;;;;5016452;28;20018;-69
2021/05/15 05:29:07;;;;;;;1.77;1.25;;;15.60;56.90;;;;;;5016410;28;20018;-69
2021/05/15 05:31:34;;;;;;;2.28;1.27;;;15.70;56.70;;;;;;5016412;28;20034;-69
2021/05/15 05:34:00;;;;;;;8.63;2.55;;;15.80;56.60;;;;;;5016599;28;20037;-69
2021/05/15 05:36:26;;;;;;;4.82;1.40;;;15.90;56.30;;;;;;5016366;28;20101;-69
2021/05/15 05:38:52;;;;;;;2.92;1.70;;;16.00;56.00;;;;;;5016319;28;20495;-70
2021/05/15 05:41:20;;;;;;;7.40;2.65;;;16.10;55.80;;;;;;5016014;28;20148;-69
2021/05/15 05:43:46;;;;;;;4.00;2.00;;;16.10;55.70;;;;;;5034122;28;20167;-69
2021/05/15 05:46:11;;;;;;;4.97;2.13;;;16.20;55.50;;;;;;5036207;28;20522;-69
2021/05/15 05:48:37;;;;;;;3.67;1.70;;;16.30;55.30;;;;;;5035664;28;20148;-72
2021/05/15 05:51:03;;;;;;;6.55;2.10;;;16.40;55.10;;;;;;5034155;28;20029;-69
2021/05/15 05:53:29;;;;;;;9.90;3.38;;;16.40;54.80;;;;;;5052540;28;20025;-69
2021/05/15 05:55:54;;;;;;;5.65;2.53;;;16.50;54.70;;;;;;5024129;28;20602;-69
2021/05/15 05:58:20;;;;;;;2.40;1.52;;;16.50;54.60;;;;;;5015894;28;20034;-69
2021/05/15 06:00:46;;;;;;;2.47;1.60;;;16.50;54.50;;;;;;5015731;28;20476;-70
2021/05/15 06:03:12;;;;;;;1.98;1.20;;;16.60;54.40;;;;;;5017069;28;20029;-69
2021/05/15 06:05:37;;;;;;;9.20;1.63;;;16.60;54.40;;;;;;5032863;28;20026;-69
2021/05/15 06:08:10;;;;;;;2.78;1.20;;;16.70;54.40;;;;;;5034575;28;20025;-70
2021/05/15 06:10:38;;;;;;;5.72;1.63;;;16.70;54.30;;;;;;5034463;28;20097;-70
2021/05/15 06:13:08;;;;;;;1.88;1.15;;;16.80;54.10;;;;;;5035090;28;20387;-70
2021/05/15 06:15:35;;;;;;;3.15;1.23;;;16.90;53.90;;;;;;5034125;28;20109;-69
2021/05/15 06:18:02;;;;;;;1.67;1.20;;;16.90;53.90;;;;;;5035428;28;20048;-69
2021/05/15 06:20:28;;;;;;;3.10;1.20;;;17.00;54.00;;;;;;5034490;28;20025;-69
2021/05/15 06:22:55;;;;;;;3.78;1.40;;;17.10;53.80;;;;;;5035188;28;20383;-70
2021/05/15 06:25:21;;;;;;;3.42;1.20;;;17.10;53.70;;;;;;5027805;28;20092;-69
2021/05/15 06:27:47;;;;;;;1.77;1.13;;;17.20;53.40;;;;;;5015282;28;20037;-69
2021/05/15 06:30:13;;;;;;;5.93;1.67;;;17.30;53.50;;;;;;5013931;28;20030;-69
2021/05/15 06:32:39;;;;;;;5.95;1.90;;;17.40;53.30;;;;;;5015298;28;20025;-69
2021/05/15 06:35:06;;;;;;;2.22;1.35;;;17.50;53.20;;;;;;5015435;28;20034;-70
2021/05/15 06:37:31;;;;;;;3.08;1.60;;;17.60;53.00;;;;;;5015105;28;20392;-69
2021/05/15 06:39:57;;;;;;;5.82;2.00;;;17.70;52.70;;;;;;5030347;28;20022;-70
2021/05/15 06:42:23;;;;;;;3.80;1.52;;;17.80;52.70;;;;;;5014877;28;20026;-70
2021/05/15 06:44:49;;;;;;;4.13;1.67;;;17.90;52.60;;;;;;5014903;28;20026;-69
2021/05/15 06:47:17;;;;;;;4.43;1.30;;;18.00;52.70;;;;;;5015030;28;20379;-69
2021/05/15 06:49:44;;;;;;;4.88;1.50;;;18.10;52.60;;;;;;5014663;28;20050;-69
2021/05/15 06:52:11;;;;;;;6.75;1.40;;;18.20;52.30;;;;;;5024679;28;20030;-70
2021/05/15 06:54:37;;;;;;;1.35;1.10;;;18.30;52.20;;;;;;5034463;28;20018;-70
2021/05/15 06:57:04;;;;;;;1.65;0.90;;;18.50;51.90;;;;;;5032929;28;20037;-69
2021/05/15 06:59:29;;;;;;;1.70;0.90;;;18.60;51.60;;;;;;5034542;28;20071;-70
2021/05/15 07:01:55;;;;;;;4.60;1.25;;;18.70;51.30;;;;;;5034467;28;20034;-70
2021/05/15 07:04:21;;;;;;;3.28;1.20;;;18.80;50.80;;;;;;5034205;28;20032;-69
2021/05/15 07:06:48;;;;;;;5.05;1.02;;;18.90;50.40;;;;;;5034366;28;20493;-70
2021/05/15 07:09:14;;;;;;;2.15;1.13;;;19.00;50.40;;;;;;5034323;28;20079;-69
2021/05/15 07:11:40;;;;;;;2.45;1.05;;;19.00;50.30;;;;;;5033744;28;20471;-70
2021/05/15 07:14:05;;;;;;;1.98;1.10;;;19.10;50.30;;;;;;5033388;28;20025;-70
2021/05/15 07:16:31;;;;;;;1.27;1.15;;;19.20;50.10;;;;;;5034107;28;20037;-70
2021/05/15 07:18:57;;;;;;;2.67;1.15;;;19.30;49.50;;;;;;5034121;28;20107;-69
2021/05/15 07:21:23;;;;;;;2.47;1.15;;;19.40;49.90;;;;;;5034086;28;20378;-70
2021/05/15 07:23:48;;;;;;;4.65;1.00;;;19.60;49.30;;;;;;5026324;28;20034;-70
2021/05/15 07:26:14;;;;;;;1.50;1.00;;;19.70;48.70;;;;;;5022481;28;20083;-70
2021/05/15 07:28:40;;;;;;;8.02;1.60;;;19.70;48.50;;;;;;5033868;28;20018;-70
2021/05/15 07:31:06;;;;;;;5.47;1.10;;;19.80;47.90;;;;;;5032620;28;20100;-70
2021/05/15 07:33:32;;;;;;;2.28;1.23;;;19.90;48.20;;;;;;5033309;28;20498;-69
2021/05/15 07:35:58;;;;;;;2.33;1.33;;;20.00;48.10;;;;;;5033652;28;20026;-70
2021/05/15 07:38:24;;;;;;;2.08;1.20;;;20.10;47.50;;;;;;5033768;28;20032;-70
2021/05/15 07:40:50;;;;;;;4.85;1.38;;;20.20;47.50;;;;;;5024838;28;20061;-70
2021/05/15 07:43:23;;;;;;;2.20;0.85;;;20.30;47.10;;;;;;5013797;28;20471;-70
2021/05/15 07:45:55;;;;;;;1.95;1.10;;;20.40;46.80;;;;;;5013848;28;20018;-70
2021/05/15 07:48:28;;;;;;;2.38;0.93;;;20.50;46.30;;;;;;5013885;28;20031;-70
2021/05/15 07:50:58;;;;;;;4.00;0.98;;;20.50;45.40;;;;;;5013771;28;20042;-69
2021/05/15 07:53:24;;;;;;;2.55;1.05;;;20.40;45.60;;;;;;5013779;28;20064;-70
2021/05/15 07:55:50;;;;;;;1.95;1.00;;;20.30;45.50;;;;;;5013864;28;20057;-70
2021/05/15 07:58:17;;;;;;;4.13;1.42;;;20.20;45.70;;;;;;5013657;28;20050;-70
2021/05/15 08:00:43;;;;;;;1.73;0.85;;;20.10;46.00;;;;;;5013665;28;20037;-70
2021/05/15 08:03:09;;;;;;;1.75;0.93;;;20.00;46.40;;;;;;5013687;28;20026;-70
2021/05/15 08:05:35;;;;;;;2.75;1.02;;;19.90;46.80;;;;;;5013590;28;20092;-70
2021/05/15 08:08:02;;;;;;;3.90;1.30;;;19.90;46.80;;;;;;5012204;28;20105;-70
2021/05/15 08:10:29;;;;;;;2.33;0.88;;;19.80;47.00;;;;;;5013566;28;20502;-70
2021/05/15 08:12:59;;;;;;;1.25;0.93;;;19.80;47.30;;;;;;5013533;28;20041;-70
2021/05/15 08:15:25;;;;;;;3.28;1.10;;;19.90;47.60;;;;;;5013296;28;20033;-69
2021/05/15 08:17:52;;;;;;;1.55;1.00;;;19.90;47.60;;;;;;5013364;28;20362;-69
2021/05/15 08:20:18;;;;;;;3.85;1.00;;;19.90;47.50;;;;;;5013389;28;20034;-70
2021/05/15 08:22:45;;;;;;;1.48;1.00;;;20.00;47.40;;;;;;5014791;28;20038;-70
2021/05/15 08:25:12;;;;;;;2.17;1.10;;;20.00;46.90;;;;;;5013017;28;20034;-70
2021/05/15 08:27:40;;;;;;;1.70;1.00;;;20.00;47.10;;;;;;5013341;28;20025;-70
2021/05/15 08:30:14;;;;;;;1.55;0.98;;;20.00;47.20;;;;;;5013269;28;20021;-70
2021/05/15 08:32:41;;;;;;;1.80;1.15;;;20.00;46.90;;;;;;5014436;28;20026;-70
2021/05/15 08:35:07;;;;;;;4.00;0.77;;;19.90;46.60;;;;;;5016693;28;20096;-70
2021/05/15 08:37:33;;;;;;;1.65;0.90;;;19.90;46.70;;;;;;5030840;28;20014;-70
2021/05/15 08:39:59;;;;;;;2.47;1.25;;;19.70;46.60;;;;;;5032873;28;20032;-69
2021/05/15 08:42:28;;;;;;;1.02;0.70;;;19.70;46.70;;;;;;5028065;28;20108;-70
2021/05/15 08:44:56;;;;;;;1.15;0.88;;;19.70;47.00;;;;;;5031402;28;20030;-70
2021/05/15 08:47:22;;;;;;;2.45;0.80;;;19.70;47.10;;;;;;5032818;28;20044;-70
2021/05/15 08:49:48;;;;;;;1.15;0.77;;;19.70;47.20;;;;;;5031411;28;20075;-69
2021/05/15 08:52:15;;;;;;;1.27;0.70;;;19.80;47.10;;;;;;5032766;28;20101;-70
2021/05/15 08:54:41;;;;;;;2.25;0.95;;;19.80;47.10;;;;;;5032676;28;20030;-70
2021/05/15 08:57:07;;;;;;;2.70;1.20;;;20.00;46.60;;;;;;5015437;28;20117;-70
2021/05/15 08:59:34;;;;;;;1.80;0.98;;;20.00;46.40;;;;;;5028205;28;20030;-70
2021/05/15 09:01:59;;;;;;;5.18;1.20;;;20.10;46.30;;;;;;5028109;28;20034;-70
2021/05/15 09:04:26;;;;;;;2.30;0.73;;;20.20;46.20;;;;;;5012831;28;20041;-70
2021/05/15 09:06:52;;;;;;;1.83;0.95;;;20.30;46.20;;;;;;5012996;28;20025;-70
2021/05/15 09:09:18;;;;;;;1.42;0.80;;;20.30;45.70;;;;;;5013017;28;20022;-70
2021/05/15 09:11:44;;;;;;;1.20;0.70;;;20.30;45.30;;;;;;5022612;28;20053;-70
2021/05/15 09:14:20;;;;;;;2.03;0.90;;;20.30;45.50;;;;;;5015771;28;20053;-69
2021/05/15 09:16:50;;;;;;;1.02;0.73;;;20.30;45.60;;;;;;5012069;28;20491;-70
2021/05/15 09:19:28;;;;;;;3.80;0.80;;;20.30;45.70;;;;;;5011756;28;20026;-70
2021/05/15 09:21:57;;;;;;;3.95;0.80;;;20.30;45.60;;;;;;5015979;28;20080;-69
2021/05/15 09:24:34;;;;;;;3.15;1.00;;;20.30;45.00;;;;;;5027805;28;20038;-70
2021/05/15 09:27:04;;;;;;;1.40;0.80;;;20.30;45.00;;;;;;5021433;28;20029;-69
2021/05/15 09:29:59;;;;;;;1.00;0.77;;;20.40;45.40;;;;;;5050365;28;20052;-70
2021/05/15 09:32:34;;;;;;;1.15;0.60;;;20.40;45.50;;;;;;5065486;28;20063;-70
2021/05/15 09:35:02;;;;;;;1.33;0.80;;;20.50;45.40;;;;;;5069978;28;20564;-70
2021/05/15 09:37:40;;;;;;;1.02;0.77;;;20.60;45.20;;;;;;5072298;28;20573;-70
2021/05/15 09:40:17;;;;;;;3.30;1.30;;;20.70;44.90;;;;;;5072604;28;20029;-70
2021/05/15 09:42:51;;;;;;;1.73;0.90;;;20.70;45.10;;;;;;5073590;28;20033;-70
2021/05/15 09:45:21;;;;;;;1.67;0.70;;;20.70;44.80;;;;;;5071467;28;20024;-70
2021/05/15 09:47:54;;;;;;;1.77;0.90;;;20.80;44.50;;;;;;5053594;28;20029;-71
2021/05/15 09:50:21;;;;;;;1.05;0.75;;;20.90;44.20;;;;;;5053419;28;20059;-70
2021/05/15 09:52:46;;;;;;;3.95;1.00;;;21.20;44.20;;;;;;5053523;28;20478;-70
2021/05/15 09:55:13;;;;;;;1.58;0.70;;;21.30;43.70;;;;;;5037054;28;20040;-70
2021/05/15 09:57:39;;;;;;;2.90;1.35;;;21.60;43.60;;;;;;5058468;28;20029;-70
2021/05/15 10:00:14;;;;;;;4.63;1.05;;;21.70;42.50;;;;;;5056603;28;20139;-70
2021/05/15 10:02:40;;;;;;;1.70;0.75;;;21.90;42.20;;;;;;5072285;28;20036;-70
2021/05/15 10:05:10;;;;;;;2.40;0.90;;;21.90;42.00;;;;;;5069112;28;20032;-69
2021/05/15 10:07:37;;;;;;;3.20;0.80;;;21.90;41.90;;;;;;5052761;28;20021;-69
2021/05/15 10:10:06;;;;;;;4.38;0.93;;;22.00;41.90;;;;;;5014229;28;20026;-69
2021/05/15 10:12:33;;;;;;;0.70;0.60;;;22.10;41.40;;;;;;5015547;28;20019;-70
2021/05/15 10:15:01;;;;;;;1.13;0.60;;;22.30;40.90;;;;;;5015547;28;20083;-69
2021/05/15 10:17:27;;;;;;;2.05;0.80;;;22.50;40.70;;;;;;5016049;28;20428;-69
2021/05/15 10:19:54;;;;;;;5.97;1.17;;;22.70;40.40;;;;;;5025419;28;20476;-70
2021/05/15 10:22:20;;;;;;;0.73;0.57;;;22.80;39.20;;;;;;5015496;28;20073;-70
2021/05/15 10:24:55;;;;;;;3.55;0.90;;;22.90;39.90;;;;;;5015083;28;20018;-70
2021/05/15 10:27:21;;;;;;;4.30;0.73;;;23.00;39.30;;;;;;5030747;28;20025;-71
2021/05/15 10:29:52;;;;;;;0.77;0.60;;;23.00;38.50;;;;;;5034666;28;20079;-70
2021/05/15 10:32:18;;;;;;;1.10;0.80;;;22.90;38.30;;;;;;5028149;28;20439;-70
2021/05/15 10:34:56;;;;;;;1.13;0.80;;;22.90;38.90;;;;;;5021354;28;20065;-70
2021/05/15 10:37:22;;;;;;;1.15;0.73;;;22.80;38.80;;;;;;5034834;28;20025;-71
2021/05/15 10:39:49;;;;;;;2.70;1.75;;;22.90;38.90;;;;;;5033958;28;20033;-71
2021/05/15 10:42:26;;;;;;;4.88;1.70;;;22.90;39.00;;;;;;5036464;28;20049;-71
2021/05/15 10:44:52;;;;;;;2.22;1.33;;;23.00;39.40;;;;;;5034101;28;20042;-70
2021/05/15 10:47:21;;;;;;;1.02;0.70;;;23.10;38.80;;;;;;5023098;28;20022;-71
2021/05/15 10:49:47;;;;;;;0.90;0.70;;;23.10;38.80;;;;;;5031531;28;20391;-71
2021/05/15 10:52:15;;;;;;;5.20;1.00;;;23.10;38.60;;;;;;5034815;28;20378;-70
2021/05/15 10:54:51;;;;;;;1.25;1.00;;;23.10;38.70;;;;;;5024528;28;20387;-70
2021/05/15 10:57:22;;;;;;;7.07;1.50;;;23.10;38.40;;;;;;5043325;28;20030;-70
2021/05/15 10:59:58;;;;;;;1.83;0.70;;;23.00;38.70;;;;;;5033298;28;20545;-70
2021/05/15 11:02:32;;;;;;;1.23;0.63;;;22.90;38.70;;;;;;5034401;28;20035;-70
2021/05/15 11:05:01;;;;;;;;;;;22.90;38.70;;;;;;5024999;28;20480;-72
2021/05/15 11:07:35;;;;;;;1.25;0.80;;;22.90;39.50;;;;;;5014415;28;20253;-70
2021/05/15 11:10:04;;;;;;;1.60;0.82;;;22.80;39.10;;;;;;5016245;28;20468;-70
2021/05/15 11:12:38;;;;;;;3.10;0.60;;;22.80;38.90;;;;;;5016824;28;20029;-70
2021/05/15 11:15:05;;;;;;;;;;;22.80;39.10;;;;;;5021596;28;20029;-70
2021/05/15 11:17:31;;;;;;;0.90;0.60;;;22.90;39.90;;;;;;5032531;28;20366;-70
2021/05/15 11:20:15;;;;;;;1.67;0.95;;;23.00;38.90;;;;;;5016913;28;20428;-71
2021/05/15 11:22:51;;;;;;;0.88;0.60;;;23.10;39.00;;;;;;5028773;28;20018;-70
2021/05/15 11:25:27;;;;;;;1.50;0.80;;;23.20;38.40;;;;;;5026137;28;20036;-70
2021/05/15 11:28:03;;;;;;;1.40;0.75;;;23.30;38.50;;;;;;5028646;28;20075;-70
2021/05/15 11:30:36;;;;;;;1.67;0.75;;;23.50;38.20;;;;;;5019552;28;20025;-70
2021/05/15 11:33:11;;;;;;;0.77;0.55;;;23.60;37.90;;;;;;5025755;28;20027;-70
2021/05/15 11:35:38;;;;;;;1.33;0.68;;;23.70;37.60;;;;;;5013431;28;20049;-71
2021/05/15 11:38:06;;;;;;;0.45;0.43;;;23.70;37.00;;;;;;5015971;28;20076;-71
2021/05/15 11:40:36;;;;;;;0.60;0.50;;;23.70;37.20;;;;;;5013768;28;20373;-70
2021/05/15 11:43:02;;;;;;;1.67;0.93;;;23.70;37.30;;;;;;5020954;28;20030;-71
2021/05/15 11:45:31;;;;;;;1.35;0.90;;;23.70;37.30;;;;;;5032640;28;20047;-71
2021/05/15 11:48:24;;;;;;;1.90;1.00;;;23.60;36.60;;;;;;5032226;28;20124;-71
2021/05/15 11:51:10;;;;;;;1.27;0.75;;;23.60;37.50;;;;;;5016113;28;20049;-71
2021/05/15 11:53:41;;;;;;;2.15;1.17;;;23.60;37.60;;;;;;5012476;28;20431;-70
2021/05/15 11:56:11;;;;;;;3.08;0.85;;;23.50;37.20;;;;;;5012840;28;20018;-70
2021/05/15 11:58:51;;;;;;;0.80;0.60;;;23.60;37.40;;;;;;5012405;28;20033;-70
2021/05/15 12:01:17;;;;;;;1.27;0.70;;;23.70;37.50;;;;;;5017754;28;20133;-70
2021/05/15 12:03:43;;;;;;;1.55;0.90;;;23.90;36.60;;;;;;5012966;28;20479;-70
2021/05/15 12:06:14;;;;;;;0.60;0.50;;;24.00;36.40;;;;;;5012538;28;20029;-71
2021/05/15 12:08:40;;;;;;;1.38;0.75;;;24.10;36.30;;;;;;5012550;28;20029;-71
2021/05/15 12:11:06;;;;;;;2.28;0.60;;;24.20;36.10;;;;;;5012512;28;20480;-70
2021/05/15 12:13:32;;;;;;;1.88;0.80;;;24.20;35.50;;;;;;5012306;28;20041;-70
2021/05/15 12:16:01;;;;;;;2.63;0.90;;;24.20;35.70;;;;;;5026506;28;20041;-70
2021/05/15 12:18:28;;;;;;;1.23;0.80;;;24.20;35.10;;;;;;5030327;28;20029;-71
2021/05/15 12:20:55;;;;;;;1.70;0.65;;;24.30;35.40;;;;;;5032075;28;20028;-70
2021/05/15 12:23:24;;;;;;;0.70;0.68;;;24.40;35.50;;;;;;5032135;28;20036;-70
2021/05/15 12:26:00;;;;;;;1.02;0.70;;;24.40;34.70;;;;;;5015250;28;20503;-70
2021/05/15 12:28:30;;;;;;;1.77;0.80;;;24.50;34.90;;;;;;5031956;28;20022;-70
2021/05/15 12:30:57;;;;;;;0.60;0.45;;;24.50;34.70;;;;;;5031905;28;20076;-70
2021/05/15 12:33:27;;;;;;;1.73;0.60;;;24.50;34.60;;;;;;5030111;28;20036;-70
2021/05/15 12:35:56;;;;;;;1.25;0.63;;;24.50;34.50;;;;;;5030502;28;20100;-70
2021/05/15 12:38:22;;;;;;;2.47;1.05;;;24.50;34.90;;;;;;5032205;28;20029;-70
2021/05/15 12:40:48;;;;;;;2.33;0.70;;;24.50;34.70;;;;;;5032960;28;20377;-70
2021/05/15 12:43:14;;;;;;;1.85;0.70;;;24.60;34.60;;;;;;5023560;28;20034;-70
2021/05/15 12:45:41;;;;;;;0.90;0.73;;;24.60;34.50;;;;;;5028608;28;20036;-70
2021/05/15 12:48:43;;;;;;;1.45;0.80;;;24.50;34.40;;;;;;5012805;28;20053;-70
2021/05/15 12:51:15;;;;;;;0.55;0.50;;;24.40;34.90;;;;;;5018530;28;20046;-70